sensor_id;sensor_type;location;lat;lon;timestamp;temperature;humidity
75380;HTU21D;65641;44.714;37.756;2023-04-05T00:00:42;18.09;69.90
75380;HTU21D;65641;44.714;37.756;2023-04-05T00:01:45;18.08;69.91
75380;HTU21D;65641;44.714;37.756;2023-04-05T00:02:51;18.07;69.96
75380;HTU21D;65641;44.714;37.756;2023-04-05T00:03:57;18.04;69.97
75380;HTU21D;65641;44.714;37.756;2023-04-05T00:05:00;18.03;69.98
75380;HTU21D;65641;44.714;37.756;2023-04-05T00:06:05;18.02;70.02
75380;HTU21D;65641;44.714;37.756;2023-04-05T00:07:09;17.97;70.06
75380;HTU21D;65641;44.714;37.756;2023-04-05T00:08:13;17.97;70.09
75380;HTU21D;65641;44.714;37.756;2023-04-05T00:09:20;17.95;70.11
75380;HTU21D;65641;44.714;37.756;2023-04-05T00:10:22;17.93;70.16
75380;HTU21D;65641;44.714;37.756;2023-04-05T00:11:30;17.92;70.18
75380;HTU21D;65641;44.714;37.756;2023-04-05T00:12:33;17.90;70.18
75380;HTU21D;65641;44.714;37.756;2023-04-05T00:13:38;17.88;70.20
75380;HTU21D;65641;44.714;37.756;2023-04-05T00:14:41;17.84;70.23
75380;HTU21D;65641;44.714;37.756;2023-04-05T00:15:44;17.83;70.29
75380;HTU21D;65641;44.714;37.756;2023-04-05T00:16:46;17.81;70.30
75380;HTU21D;65641;44.714;37.756;2023-04-05T00:17:49;17.78;70.35
75380;HTU21D;65641;44.714;37.756;2023-04-05T00:18:54;17.77;70.39
75380;HTU21D;65641;44.714;37.756;2023-04-05T00:19:57;17.76;70.43
75380;HTU21D;65641;44.714;37.756;2023-04-05T00:21:00;17.74;70.45
75380;HTU21D;65641;44.714;37.756;2023-04-05T00:22:03;17.72;70.40
75380;HTU21D;65641;44.714;37.756;2023-04-05T00:23:06;17.69;70.39
75380;HTU21D;65641;44.714;37.756;2023-04-05T00:24:12;17.67;70.35
75380;HTU21D;65641;44.714;37.756;2023-04-05T00:25:17;17.66;70.36
75380;HTU21D;65641;44.714;37.756;2023-04-05T00:26:20;17.65;70.38
75380;HTU21D;65641;44.714;37.756;2023-04-05T00:27:27;17.63;70.39
75380;HTU21D;65641;44.714;37.756;2023-04-05T00:28:30;17.63;70.42
75380;HTU21D;65641;44.714;37.756;2023-04-05T00:29:33;17.60;70.41
75380;HTU21D;65641;44.714;37.756;2023-04-05T00:30:37;17.61;70.44
75380;HTU21D;65641;44.714;37.756;2023-04-05T00:31:40;17.58;70.44
75380;HTU21D;65641;44.714;37.756;2023-04-05T00:32:43;17.56;70.44
75380;HTU21D;65641;44.714;37.756;2023-04-05T00:33:48;17.55;70.45
75380;HTU21D;65641;44.714;37.756;2023-04-05T00:34:51;17.53;70.45
75380;HTU21D;65641;44.714;37.756;2023-04-05T00:35:54;17.53;70.48
75380;HTU21D;65641;44.714;37.756;2023-04-05T00:36:57;17.52;70.48
75380;HTU21D;65641;44.714;37.756;2023-04-05T00:38:00;17.52;70.48
75380;HTU21D;65641;44.714;37.756;2023-04-05T00:39:02;17.52;70.47
75380;HTU21D;65641;44.714;37.756;2023-04-05T00:40:06;17.50;70.48
75380;HTU21D;65641;44.714;37.756;2023-04-05T00:41:10;17.50;70.48
75380;HTU21D;65641;44.714;37.756;2023-04-05T00:42:13;17.50;70.48
75380;HTU21D;65641;44.714;37.756;2023-04-05T00:43:17;17.49;70.46
75380;HTU21D;65641;44.714;37.756;2023-04-05T00:44:19;17.49;70.47
75380;HTU21D;65641;44.714;37.756;2023-04-05T00:45:22;17.48;70.48
75380;HTU21D;65641;44.714;37.756;2023-04-05T00:46:26;17.48;70.50
75380;HTU21D;65641;44.714;37.756;2023-04-05T00:47:30;17.48;70.48
75380;HTU21D;65641;44.714;37.756;2023-04-05T00:48:34;17.48;70.43
75380;HTU21D;65641;44.714;37.756;2023-04-05T00:49:37;17.47;70.41
75380;HTU21D;65641;44.714;37.756;2023-04-05T00:50:40;17.48;70.40
75380;HTU21D;65641;44.714;37.756;2023-04-05T00:51:45;17.47;70.39
75380;HTU21D;65641;44.714;37.756;2023-04-05T00:52:49;17.48;70.38
75380;HTU21D;65641;44.714;37.756;2023-04-05T00:53:52;17.48;70.31
75380;HTU21D;65641;44.714;37.756;2023-04-05T00:54:56;17.47;70.26
75380;HTU21D;65641;44.714;37.756;2023-04-05T00:55:59;17.48;70.25
75380;HTU21D;65641;44.714;37.756;2023-04-05T00:57:03;17.48;70.17
75380;HTU21D;65641;44.714;37.756;2023-04-05T00:58:07;17.47;70.12
75380;HTU21D;65641;44.714;37.756;2023-04-05T00:59:11;17.47;70.03
75380;HTU21D;65641;44.714;37.756;2023-04-05T01:00:15;17.47;69.97
75380;HTU21D;65641;44.714;37.756;2023-04-05T01:01:19;17.46;69.90
75380;HTU21D;65641;44.714;37.756;2023-04-05T01:02:40;17.46;69.77
75380;HTU21D;65641;44.714;37.756;2023-04-05T01:03:52;17.45;69.71
75380;HTU21D;65641;44.714;37.756;2023-04-05T01:05:01;17.45;69.68
75380;HTU21D;65641;44.714;37.756;2023-04-05T01:07:12;17.44;69.63
75380;HTU21D;65641;44.714;37.756;2023-04-05T01:08:36;17.45;69.56
75380;HTU21D;65641;44.714;37.756;2023-04-05T01:09:52;17.45;69.55
75380;HTU21D;65641;44.714;37.756;2023-04-05T01:10:58;17.46;69.50
75380;HTU21D;65641;44.714;37.756;2023-04-05T01:12:05;17.46;69.43
75380;HTU21D;65641;44.714;37.756;2023-04-05T01:13:09;17.45;69.39
75380;HTU21D;65641;44.714;37.756;2023-04-05T01:14:12;17.45;69.35
75380;HTU21D;65641;44.714;37.756;2023-04-05T01:15:15;17.45;69.28
75380;HTU21D;65641;44.714;37.756;2023-04-05T01:16:20;17.44;69.25
75380;HTU21D;65641;44.714;37.756;2023-04-05T01:17:24;17.44;69.23
75380;HTU21D;65641;44.714;37.756;2023-04-05T01:18:29;17.45;69.18
75380;HTU21D;65641;44.714;37.756;2023-04-05T01:19:32;17.44;69.16
75380;HTU21D;65641;44.714;37.756;2023-04-05T01:20:41;17.44;69.13
75380;HTU21D;65641;44.714;37.756;2023-04-05T01:30:19;17.45;68.85
75380;HTU21D;65641;44.714;37.756;2023-04-05T01:31:30;17.45;68.86
75380;HTU21D;65641;44.714;37.756;2023-04-05T01:32:47;17.46;68.83
75380;HTU21D;65641;44.714;37.756;2023-04-05T01:34:03;17.45;68.84
75380;HTU21D;65641;44.714;37.756;2023-04-05T01:37:26;17.45;68.85
75380;HTU21D;65641;44.714;37.756;2023-04-05T01:38:32;17.44;68.83
75380;HTU21D;65641;44.714;37.756;2023-04-05T01:39:37;17.44;68.81
75380;HTU21D;65641;44.714;37.756;2023-04-05T01:40:40;17.43;68.79
75380;HTU21D;65641;44.714;37.756;2023-04-05T01:41:44;17.41;68.81
75380;HTU21D;65641;44.714;37.756;2023-04-05T01:42:48;17.41;68.81
75380;HTU21D;65641;44.714;37.756;2023-04-05T01:43:51;17.39;68.84
75380;HTU21D;65641;44.714;37.756;2023-04-05T01:44:55;17.40;68.84
75380;HTU21D;65641;44.714;37.756;2023-04-05T01:45:58;17.40;68.89
75380;HTU21D;65641;44.714;37.756;2023-04-05T01:47:01;17.39;68.94
75380;HTU21D;65641;44.714;37.756;2023-04-05T01:48:04;17.38;68.97
75380;HTU21D;65641;44.714;37.756;2023-04-05T01:49:08;17.39;69.00
75380;HTU21D;65641;44.714;37.756;2023-04-05T01:50:10;17.38;69.04
75380;HTU21D;65641;44.714;37.756;2023-04-05T01:51:13;17.38;69.05
75380;HTU21D;65641;44.714;37.756;2023-04-05T01:52:16;17.38;69.13
75380;HTU21D;65641;44.714;37.756;2023-04-05T01:53:19;17.37;69.16
75380;HTU21D;65641;44.714;37.756;2023-04-05T01:54:23;17.37;69.19
75380;HTU21D;65641;44.714;37.756;2023-04-05T01:55:26;17.37;69.18
75380;HTU21D;65641;44.714;37.756;2023-04-05T01:56:28;17.38;69.20
75380;HTU21D;65641;44.714;37.756;2023-04-05T01:57:31;17.39;69.20
75380;HTU21D;65641;44.714;37.756;2023-04-05T01:58:34;17.39;69.22
75380;HTU21D;65641;44.714;37.756;2023-04-05T01:59:37;17.38;69.23
75380;HTU21D;65641;44.714;37.756;2023-04-05T02:00:40;17.38;69.25
75380;HTU21D;65641;44.714;37.756;2023-04-05T02:01:43;17.40;69.28
75380;HTU21D;65641;44.714;37.756;2023-04-05T02:02:46;17.38;69.27
75380;HTU21D;65641;44.714;37.756;2023-04-05T02:03:49;17.39;69.26
75380;HTU21D;65641;44.714;37.756;2023-04-05T02:04:52;17.40;69.27
75380;HTU21D;65641;44.714;37.756;2023-04-05T02:05:56;17.40;69.27
75380;HTU21D;65641;44.714;37.756;2023-04-05T02:06:59;17.40;69.25
75380;HTU21D;65641;44.714;37.756;2023-04-05T02:08:02;17.41;69.24
75380;HTU21D;65641;44.714;37.756;2023-04-05T02:09:05;17.41;69.20
75380;HTU21D;65641;44.714;37.756;2023-04-05T02:10:08;17.41;69.17
75380;HTU21D;65641;44.714;37.756;2023-04-05T02:11:14;17.44;69.16
75380;HTU21D;65641;44.714;37.756;2023-04-05T02:12:16;17.43;69.13
75380;HTU21D;65641;44.714;37.756;2023-04-05T02:13:19;17.44;69.10
75380;HTU21D;65641;44.714;37.756;2023-04-05T02:14:27;17.44;69.10
75380;HTU21D;65641;44.714;37.756;2023-04-05T02:15:30;17.45;69.04
75380;HTU21D;65641;44.714;37.756;2023-04-05T02:16:35;17.44;69.04
75380;HTU21D;65641;44.714;37.756;2023-04-05T02:17:38;17.44;69.00
75380;HTU21D;65641;44.714;37.756;2023-04-05T02:18:41;17.44;69.03
75380;HTU21D;65641;44.714;37.756;2023-04-05T02:19:45;17.44;69.01
75380;HTU21D;65641;44.714;37.756;2023-04-05T02:20:49;17.44;69.00
75380;HTU21D;65641;44.714;37.756;2023-04-05T02:21:52;17.45;69.00
75380;HTU21D;65641;44.714;37.756;2023-04-05T02:22:57;17.44;69.01
75380;HTU21D;65641;44.714;37.756;2023-04-05T02:24:03;17.44;69.00
75380;HTU21D;65641;44.714;37.756;2023-04-05T02:25:06;17.44;69.00
75380;HTU21D;65641;44.714;37.756;2023-04-05T02:26:13;17.45;69.00
75380;HTU21D;65641;44.714;37.756;2023-04-05T02:27:16;17.44;69.00
75380;HTU21D;65641;44.714;37.756;2023-04-05T02:28:19;17.44;69.01
75380;HTU21D;65641;44.714;37.756;2023-04-05T02:29:22;17.43;69.01
75380;HTU21D;65641;44.714;37.756;2023-04-05T02:30:25;17.44;69.01
75380;HTU21D;65641;44.714;37.756;2023-04-05T02:31:30;17.43;69.00
75380;HTU21D;65641;44.714;37.756;2023-04-05T02:32:33;17.43;69.01
75380;HTU21D;65641;44.714;37.756;2023-04-05T02:33:40;17.44;68.99
75380;HTU21D;65641;44.714;37.756;2023-04-05T02:34:42;17.43;68.97
75380;HTU21D;65641;44.714;37.756;2023-04-05T02:35:49;17.43;68.97
75380;HTU21D;65641;44.714;37.756;2023-04-05T02:36:53;17.41;68.94
75380;HTU21D;65641;44.714;37.756;2023-04-05T02:37:56;17.43;68.94
75380;HTU21D;65641;44.714;37.756;2023-04-05T02:38:59;17.41;68.93
75380;HTU21D;65641;44.714;37.756;2023-04-05T02:40:06;17.43;68.91
75380;HTU21D;65641;44.714;37.756;2023-04-05T02:41:13;17.41;68.88
75380;HTU21D;65641;44.714;37.756;2023-04-05T02:42:16;17.43;68.89
75380;HTU21D;65641;44.714;37.756;2023-04-05T02:43:19;17.41;68.87
75380;HTU21D;65641;44.714;37.756;2023-04-05T02:44:24;17.41;68.88
75380;HTU21D;65641;44.714;37.756;2023-04-05T02:45:28;17.41;68.88
75380;HTU21D;65641;44.714;37.756;2023-04-05T02:46:33;17.41;68.91
75380;HTU21D;65641;44.714;37.756;2023-04-05T02:47:36;17.40;68.91
75380;HTU21D;65641;44.714;37.756;2023-04-05T02:48:39;17.39;68.92
75380;HTU21D;65641;44.714;37.756;2023-04-05T02:49:43;17.40;68.93
75380;HTU21D;65641;44.714;37.756;2023-04-05T02:50:47;17.39;68.94
75380;HTU21D;65641;44.714;37.756;2023-04-05T02:51:52;17.40;68.92
75380;HTU21D;65641;44.714;37.756;2023-04-05T02:52:55;17.39;68.90
75380;HTU21D;65641;44.714;37.756;2023-04-05T02:53:58;17.39;68.91
75380;HTU21D;65641;44.714;37.756;2023-04-05T02:55:01;17.39;68.91
75380;HTU21D;65641;44.714;37.756;2023-04-05T02:56:05;17.39;68.93
75380;HTU21D;65641;44.714;37.756;2023-04-05T02:57:15;17.39;68.97
75380;HTU21D;65641;44.714;37.756;2023-04-05T02:58:26;17.39;68.97
75380;HTU21D;65641;44.714;37.756;2023-04-05T02:59:29;17.40;68.97
75380;HTU21D;65641;44.714;37.756;2023-04-05T03:00:33;17.39;68.98
75380;HTU21D;65641;44.714;37.756;2023-04-05T03:01:37;17.40;69.02
75380;HTU21D;65641;44.714;37.756;2023-04-05T03:02:41;17.40;69.03
75380;HTU21D;65641;44.714;37.756;2023-04-05T03:03:44;17.40;69.06
75380;HTU21D;65641;44.714;37.756;2023-04-05T03:04:51;17.39;69.07
75380;HTU21D;65641;44.714;37.756;2023-04-05T03:06:05;17.40;69.07
75380;HTU21D;65641;44.714;37.756;2023-04-05T03:07:21;17.40;69.10
75380;HTU21D;65641;44.714;37.756;2023-04-05T03:08:28;17.41;69.10
75380;HTU21D;65641;44.714;37.756;2023-04-05T03:09:36;17.40;69.13
75380;HTU21D;65641;44.714;37.756;2023-04-05T03:10:45;17.41;69.15
75380;HTU21D;65641;44.714;37.756;2023-04-05T03:11:51;17.41;69.17
75380;HTU21D;65641;44.714;37.756;2023-04-05T03:12:54;17.41;69.21
75380;HTU21D;65641;44.714;37.756;2023-04-05T03:13:59;17.41;69.22
75380;HTU21D;65641;44.714;37.756;2023-04-05T03:15:12;17.41;69.25
75380;HTU21D;65641;44.714;37.756;2023-04-05T03:16:18;17.43;69.28
75380;HTU21D;65641;44.714;37.756;2023-04-05T03:17:21;17.43;69.29
75380;HTU21D;65641;44.714;37.756;2023-04-05T03:18:33;17.45;69.29
75380;HTU21D;65641;44.714;37.756;2023-04-05T03:19:41;17.45;69.31
75380;HTU21D;65641;44.714;37.756;2023-04-05T03:20:49;17.46;69.32
75380;HTU21D;65641;44.714;37.756;2023-04-05T03:21:59;17.48;69.36
75380;HTU21D;65641;44.714;37.756;2023-04-05T03:23:06;17.48;69.38
75380;HTU21D;65641;44.714;37.756;2023-04-05T03:24:11;17.50;69.36
75380;HTU21D;65641;44.714;37.756;2023-04-05T03:25:16;17.52;69.31
75380;HTU21D;65641;44.714;37.756;2023-04-05T03:26:22;17.52;69.33
75380;HTU21D;65641;44.714;37.756;2023-04-05T03:27:28;17.53;69.29
75380;HTU21D;65641;44.714;37.756;2023-04-05T03:28:36;17.56;69.25
75380;HTU21D;65641;44.714;37.756;2023-04-05T03:29:41;17.56;69.24
75380;HTU21D;65641;44.714;37.756;2023-04-05T03:30:49;17.58;69.22
75380;HTU21D;65641;44.714;37.756;2023-04-05T03:31:54;17.60;69.23
75380;HTU21D;65641;44.714;37.756;2023-04-05T03:32:59;17.61;69.19
75380;HTU21D;65641;44.714;37.756;2023-04-05T03:34:13;17.62;69.20
75380;HTU21D;65641;44.714;37.756;2023-04-05T03:35:20;17.65;69.18
75380;HTU21D;65641;44.714;37.756;2023-04-05T03:36:23;17.66;69.14
75380;HTU21D;65641;44.714;37.756;2023-04-05T03:37:27;17.68;69.13
75380;HTU21D;65641;44.714;37.756;2023-04-05T03:38:43;17.68;69.10
75380;HTU21D;65641;44.714;37.756;2023-04-05T03:39:53;17.68;69.06
75380;HTU21D;65641;44.714;37.756;2023-04-05T03:40:56;17.70;69.00
75380;HTU21D;65641;44.714;37.756;2023-04-05T03:41:59;17.70;68.94
75380;HTU21D;65641;44.714;37.756;2023-04-05T03:43:03;17.72;68.93
75380;HTU21D;65641;44.714;37.756;2023-04-05T03:44:07;17.72;68.92
75380;HTU21D;65641;44.714;37.756;2023-04-05T03:45:10;17.73;68.93
75380;HTU21D;65641;44.714;37.756;2023-04-05T03:46:13;17.73;68.91
75380;HTU21D;65641;44.714;37.756;2023-04-05T03:47:16;17.74;68.90
75380;HTU21D;65641;44.714;37.756;2023-04-05T03:48:19;17.74;68.90
75380;HTU21D;65641;44.714;37.756;2023-04-05T03:49:24;17.76;68.87
75380;HTU21D;65641;44.714;37.756;2023-04-05T03:50:27;17.75;68.87
75380;HTU21D;65641;44.714;37.756;2023-04-05T03:51:30;17.75;68.87
75380;HTU21D;65641;44.714;37.756;2023-04-05T03:52:34;17.74;68.91
75380;HTU21D;65641;44.714;37.756;2023-04-05T03:53:39;17.74;68.94
75380;HTU21D;65641;44.714;37.756;2023-04-05T03:54:42;17.75;68.97
75380;HTU21D;65641;44.714;37.756;2023-04-05T03:55:47;17.75;69.00
75380;HTU21D;65641;44.714;37.756;2023-04-05T03:56:56;17.75;69.01
75380;HTU21D;65641;44.714;37.756;2023-04-05T03:57:58;17.75;69.06
75380;HTU21D;65641;44.714;37.756;2023-04-05T03:59:07;17.74;69.06
75380;HTU21D;65641;44.714;37.756;2023-04-05T04:00:11;17.75;69.09
75380;HTU21D;65641;44.714;37.756;2023-04-05T04:01:16;17.76;69.09
75380;HTU21D;65641;44.714;37.756;2023-04-05T04:02:19;17.75;69.12
75380;HTU21D;65641;44.714;37.756;2023-04-05T04:03:23;17.76;69.17
75380;HTU21D;65641;44.714;37.756;2023-04-05T04:04:28;17.78;69.22
75380;HTU21D;65641;44.714;37.756;2023-04-05T04:05:31;17.78;69.26
75380;HTU21D;65641;44.714;37.756;2023-04-05T04:06:44;17.79;69.33
75380;HTU21D;65641;44.714;37.756;2023-04-05T04:07:48;17.79;69.38
75380;HTU21D;65641;44.714;37.756;2023-04-05T04:08:53;17.80;69.37
75380;HTU21D;65641;44.714;37.756;2023-04-05T04:09:55;17.82;69.29
75380;HTU21D;65641;44.714;37.756;2023-04-05T04:10:58;17.82;69.20
75380;HTU21D;65641;44.714;37.756;2023-04-05T04:12:05;17.84;69.08
75380;HTU21D;65641;44.714;37.756;2023-04-05T04:13:11;17.85;69.00
75380;HTU21D;65641;44.714;37.756;2023-04-05T04:14:13;17.84;68.90
75380;HTU21D;65641;44.714;37.756;2023-04-05T04:15:35;17.84;68.75
75380;HTU21D;65641;44.714;37.756;2023-04-05T04:16:58;17.85;68.61
75380;HTU21D;65641;44.714;37.756;2023-04-05T04:18:19;17.83;68.53
75380;HTU21D;65641;44.714;37.756;2023-04-05T04:19:48;17.81;68.51
75380;HTU21D;65641;44.714;37.756;2023-04-05T04:21:17;17.79;68.53
75380;HTU21D;65641;44.714;37.756;2023-04-05T04:22:43;17.77;68.59
75380;HTU21D;65641;44.714;37.756;2023-04-05T04:24:10;17.74;68.69
75380;HTU21D;65641;44.714;37.756;2023-04-05T04:25:20;17.74;68.80
75380;HTU21D;65641;44.714;37.756;2023-04-05T04:26:37;17.70;68.94
75380;HTU21D;65641;44.714;37.756;2023-04-05T04:28:18;17.68;69.16
75380;HTU21D;65641;44.714;37.756;2023-04-05T04:29:46;17.66;69.30
75380;HTU21D;65641;44.714;37.756;2023-04-05T04:31:01;17.66;69.40
75380;HTU21D;65641;44.714;37.756;2023-04-05T04:32:25;17.65;69.47
75380;HTU21D;65641;44.714;37.756;2023-04-05T04:34:06;17.65;69.52
75380;HTU21D;65641;44.714;37.756;2023-04-05T04:35:15;17.64;69.55
75380;HTU21D;65641;44.714;37.756;2023-04-05T04:36:38;17.65;69.57
75380;HTU21D;65641;44.714;37.756;2023-04-05T04:38:08;17.65;69.55
75380;HTU21D;65641;44.714;37.756;2023-04-05T04:39:34;17.64;69.55
75380;HTU21D;65641;44.714;37.756;2023-04-05T04:41:14;17.64;69.52
75380;HTU21D;65641;44.714;37.756;2023-04-05T04:42:37;17.66;69.51
75380;HTU21D;65641;44.714;37.756;2023-04-05T04:43:51;17.64;69.47
75380;HTU21D;65641;44.714;37.756;2023-04-05T04:44:59;17.63;69.45
75380;HTU21D;65641;44.714;37.756;2023-04-05T04:46:25;17.64;69.42
75380;HTU21D;65641;44.714;37.756;2023-04-05T04:47:45;17.65;69.43
75380;HTU21D;65641;44.714;37.756;2023-04-05T04:48:59;17.64;69.48
75380;HTU21D;65641;44.714;37.756;2023-04-05T04:50:09;17.63;69.52
75380;HTU21D;65641;44.714;37.756;2023-04-05T04:51:13;17.64;69.56
75380;HTU21D;65641;44.714;37.756;2023-04-05T04:52:16;17.64;69.61
75380;HTU21D;65641;44.714;37.756;2023-04-05T04:53:19;17.66;69.65
75380;HTU21D;65641;44.714;37.756;2023-04-05T04:54:25;17.67;69.61
75380;HTU21D;65641;44.714;37.756;2023-04-05T04:55:29;17.68;69.58
75380;HTU21D;65641;44.714;37.756;2023-04-05T04:56:35;17.68;69.53
75380;HTU21D;65641;44.714;37.756;2023-04-05T04:57:37;17.70;69.47
75380;HTU21D;65641;44.714;37.756;2023-04-05T04:58:40;17.70;69.45
75380;HTU21D;65641;44.714;37.756;2023-04-05T04:59:44;17.75;69.40
75380;HTU21D;65641;44.714;37.756;2023-04-05T05:00:46;17.75;69.33
75380;HTU21D;65641;44.714;37.756;2023-04-05T05:01:49;17.75;69.27
75380;HTU21D;65641;44.714;37.756;2023-04-05T05:02:54;17.77;69.17
75380;HTU21D;65641;44.714;37.756;2023-04-05T05:03:57;17.79;69.13
75380;HTU21D;65641;44.714;37.756;2023-04-05T05:05:05;17.80;69.07
75380;HTU21D;65641;44.714;37.756;2023-04-05T05:06:09;17.83;69.01
75380;HTU21D;65641;44.714;37.756;2023-04-05T05:07:12;17.84;68.94
75380;HTU21D;65641;44.714;37.756;2023-04-05T05:08:15;17.85;68.91
75380;HTU21D;65641;44.714;37.756;2023-04-05T05:09:21;17.88;68.85
75380;HTU21D;65641;44.714;37.756;2023-04-05T05:10:28;17.90;68.79
75380;HTU21D;65641;44.714;37.756;2023-04-05T05:11:36;17.91;68.70
75380;HTU21D;65641;44.714;37.756;2023-04-05T05:12:42;17.93;68.62
75380;HTU21D;65641;44.714;37.756;2023-04-05T05:13:47;17.94;68.53
75380;HTU21D;65641;44.714;37.756;2023-04-05T05:14:57;17.95;68.46
75380;HTU21D;65641;44.714;37.756;2023-04-05T05:16:00;17.97;68.41
75380;HTU21D;65641;44.714;37.756;2023-04-05T05:17:06;17.98;68.39
75380;HTU21D;65641;44.714;37.756;2023-04-05T05:18:10;17.99;68.38
75380;HTU21D;65641;44.714;37.756;2023-04-05T05:19:13;17.99;68.35
75380;HTU21D;65641;44.714;37.756;2023-04-05T05:20:24;18.02;68.33
75380;HTU21D;65641;44.714;37.756;2023-04-05T05:21:30;18.02;68.30
75380;HTU21D;65641;44.714;37.756;2023-04-05T05:22:36;18.04;68.26
75380;HTU21D;65641;44.714;37.756;2023-04-05T05:23:39;18.04;68.23
75380;HTU21D;65641;44.714;37.756;2023-04-05T05:24:43;18.04;68.23
75380;HTU21D;65641;44.714;37.756;2023-04-05T05:25:46;18.06;68.21
75380;HTU21D;65641;44.714;37.756;2023-04-05T05:26:50;18.07;68.20
75380;HTU21D;65641;44.714;37.756;2023-04-05T05:27:54;18.07;68.21
75380;HTU21D;65641;44.714;37.756;2023-04-05T05:29:02;18.08;68.20
75380;HTU21D;65641;44.714;37.756;2023-04-05T05:30:08;18.07;68.15
75380;HTU21D;65641;44.714;37.756;2023-04-05T05:31:11;18.08;68.12
75380;HTU21D;65641;44.714;37.756;2023-04-05T05:32:15;18.09;68.10
75380;HTU21D;65641;44.714;37.756;2023-04-05T05:33:18;18.10;68.09
75380;HTU21D;65641;44.714;37.756;2023-04-05T05:34:22;18.09;68.08
75380;HTU21D;65641;44.714;37.756;2023-04-05T05:35:29;18.10;68.07
75380;HTU21D;65641;44.714;37.756;2023-04-05T05:36:32;18.09;68.04
75380;HTU21D;65641;44.714;37.756;2023-04-05T05:37:35;18.10;68.03
75380;HTU21D;65641;44.714;37.756;2023-04-05T05:38:38;18.11;68.01
75380;HTU21D;65641;44.714;37.756;2023-04-05T05:39:41;18.10;68.02
75380;HTU21D;65641;44.714;37.756;2023-04-05T05:40:47;18.11;68.04
75380;HTU21D;65641;44.714;37.756;2023-04-05T05:41:49;18.10;68.07
75380;HTU21D;65641;44.714;37.756;2023-04-05T05:42:52;18.11;68.08
75380;HTU21D;65641;44.714;37.756;2023-04-05T05:43:55;18.12;68.10
75380;HTU21D;65641;44.714;37.756;2023-04-05T05:45:03;18.14;68.06
75380;HTU21D;65641;44.714;37.756;2023-04-05T05:46:06;18.13;68.00
75380;HTU21D;65641;44.714;37.756;2023-04-05T05:47:09;18.14;67.93
75380;HTU21D;65641;44.714;37.756;2023-04-05T05:48:12;18.14;67.88
75380;HTU21D;65641;44.714;37.756;2023-04-05T05:49:15;18.14;67.84
75380;HTU21D;65641;44.714;37.756;2023-04-05T05:50:18;18.14;67.82
75380;HTU21D;65641;44.714;37.756;2023-04-05T05:51:22;18.14;67.81
75380;HTU21D;65641;44.714;37.756;2023-04-05T05:52:25;18.13;67.81
75380;HTU21D;65641;44.714;37.756;2023-04-05T05:53:28;18.12;67.81
75380;HTU21D;65641;44.714;37.756;2023-04-05T05:54:31;18.11;67.84
75380;HTU21D;65641;44.714;37.756;2023-04-05T05:55:33;18.11;67.85
75380;HTU21D;65641;44.714;37.756;2023-04-05T05:56:36;18.11;67.88
75380;HTU21D;65641;44.714;37.756;2023-04-05T05:57:39;18.10;67.92
75380;HTU21D;65641;44.714;37.756;2023-04-05T05:58:42;18.09;67.98
75380;HTU21D;65641;44.714;37.756;2023-04-05T05:59:45;18.09;68.02
75380;HTU21D;65641;44.714;37.756;2023-04-05T06:00:48;18.09;68.08
75380;HTU21D;65641;44.714;37.756;2023-04-05T06:01:54;18.09;68.08
75380;HTU21D;65641;44.714;37.756;2023-04-05T06:02:57;18.08;68.05
75380;HTU21D;65641;44.714;37.756;2023-04-05T06:04:00;18.09;68.04
75380;HTU21D;65641;44.714;37.756;2023-04-05T06:05:04;18.07;67.98
75380;HTU21D;65641;44.714;37.756;2023-04-05T06:06:07;18.07;67.94
75380;HTU21D;65641;44.714;37.756;2023-04-05T06:07:12;18.05;67.92
75380;HTU21D;65641;44.714;37.756;2023-04-05T06:08:15;18.06;67.91
75380;HTU21D;65641;44.714;37.756;2023-04-05T06:09:18;18.05;67.92
75380;HTU21D;65641;44.714;37.756;2023-04-05T06:10:20;18.02;67.96
75380;HTU21D;65641;44.714;37.756;2023-04-05T06:11:23;18.00;67.98
75380;HTU21D;65641;44.714;37.756;2023-04-05T06:12:28;17.98;68.03
75380;HTU21D;65641;44.714;37.756;2023-04-05T06:13:31;17.97;68.07
75380;HTU21D;65641;44.714;37.756;2023-04-05T06:14:33;17.97;68.17
75380;HTU21D;65641;44.714;37.756;2023-04-05T06:15:36;17.94;68.27
75380;HTU21D;65641;44.714;37.756;2023-04-05T06:16:39;17.93;68.35
75380;HTU21D;65641;44.714;37.756;2023-04-05T06:17:42;17.92;68.46
75380;HTU21D;65641;44.714;37.756;2023-04-05T06:18:46;17.91;68.56
75380;HTU21D;65641;44.714;37.756;2023-04-05T06:19:49;17.90;68.67
75380;HTU21D;65641;44.714;37.756;2023-04-05T06:20:54;17.89;68.75
75380;HTU21D;65641;44.714;37.756;2023-04-05T06:21:57;17.88;68.83
75380;HTU21D;65641;44.714;37.756;2023-04-05T06:23:02;17.90;68.89
75380;HTU21D;65641;44.714;37.756;2023-04-05T06:24:05;17.89;68.94
75380;HTU21D;65641;44.714;37.756;2023-04-05T06:25:08;17.90;69.00
75380;HTU21D;65641;44.714;37.756;2023-04-05T06:26:19;17.90;69.04
75380;HTU21D;65641;44.714;37.756;2023-04-05T06:27:22;17.91;69.07
75380;HTU21D;65641;44.714;37.756;2023-04-05T06:28:24;17.92;69.07
75380;HTU21D;65641;44.714;37.756;2023-04-05T06:29:27;17.93;69.01
75380;HTU21D;65641;44.714;37.756;2023-04-05T06:30:31;17.93;68.97
75380;HTU21D;65641;44.714;37.756;2023-04-05T06:31:35;17.94;68.88
75380;HTU21D;65641;44.714;37.756;2023-04-05T06:32:38;17.94;68.80
75380;HTU21D;65641;44.714;37.756;2023-04-05T06:33:41;17.96;68.71
75380;HTU21D;65641;44.714;37.756;2023-04-05T06:34:44;17.95;68.64
75380;HTU21D;65641;44.714;37.756;2023-04-05T06:35:50;17.95;68.56
75380;HTU21D;65641;44.714;37.756;2023-04-05T06:36:52;17.95;68.51
75380;HTU21D;65641;44.714;37.756;2023-04-05T06:37:57;17.95;68.47
75380;HTU21D;65641;44.714;37.756;2023-04-05T06:39:00;17.94;68.46
75380;HTU21D;65641;44.714;37.756;2023-04-05T06:40:03;17.94;68.48
75380;HTU21D;65641;44.714;37.756;2023-04-05T06:41:06;17.92;68.52
75380;HTU21D;65641;44.714;37.756;2023-04-05T06:42:09;17.92;68.55
75380;HTU21D;65641;44.714;37.756;2023-04-05T06:43:18;17.92;68.66
75380;HTU21D;65641;44.714;37.756;2023-04-05T06:44:21;17.93;68.76
75380;HTU21D;65641;44.714;37.756;2023-04-05T06:45:24;17.93;68.91
75380;HTU21D;65641;44.714;37.756;2023-04-05T06:46:27;17.95;69.06
75380;HTU21D;65641;44.714;37.756;2023-04-05T06:47:34;17.98;69.20
75380;HTU21D;65641;44.714;37.756;2023-04-05T06:48:37;17.99;69.28
75380;HTU21D;65641;44.714;37.756;2023-04-05T06:49:41;18.03;69.26
75380;HTU21D;65641;44.714;37.756;2023-04-05T06:50:44;18.05;69.26
75380;HTU21D;65641;44.714;37.756;2023-04-05T06:51:47;18.09;69.13
75380;HTU21D;65641;44.714;37.756;2023-04-05T06:52:49;18.12;69.11
75380;HTU21D;65641;44.714;37.756;2023-04-05T06:53:52;18.17;69.01
75380;HTU21D;65641;44.714;37.756;2023-04-05T06:54:55;18.19;68.70
75380;HTU21D;65641;44.714;37.756;2023-04-05T06:55:58;18.22;68.49